Stockton, Kansas
Current Conditions -  °F | °C
As of 3:53 AM on Thursday 29 Jan 2015 (Local Time) from KHLC Reporting Station
Clear Clear  
Wind Chill: 29°   Ceiling: Unl
Heat Index: 37°   Visibility: 10mi
Dew Point: 29°   Wind: 12mph
Humidity: 73%   Direction: 10°N
Pressure: 30.3"   Gusts: NA
Location:  39.44°N, 99.27°W
Report Text: KHLC 290953Z AUTO 01010KT 10SM CLR 03/M02 A3030 RMK AO2 SLP256 T00281017
Loading
Personal Weather Stations






























Interactive Weather Map New forecast layout! Learn more

10-Day Weather Forecast

Advertisements
Track Severe Weather on mobile